Freeport, TX (77541)

10:54 PM CDT on October 22, 2014 (GMT -0500)
Freeport - Air Liquide | Change Station
CLOSE
Current Station
Personal Weather Station
Location: Freeport, TX
Elevation: 10 ft
Nearby Weather Stations

Elev 10 ft 28.99 °N, 95.34 °W | Updated 13 seconds ago

Clear
Clear
68.4 °F
Feels Like 68.4 °F
N
3.0
Wind Variable Wind from North
Gusts 4.0 mph

Today
High -- | Low -- °F
--% Chance of Precip.
Yesterday
High -- | Low -- °F
Precip. -- in
7:26 AM 6:44 PM
Waning Crescent, 1% visible
Pressure 30.08 in
Visibility 10.0 miles
Clouds Clear
Dew Point 63 °F
Humidity 82%
Rainfall 0.00 in
Snow Depth Not available.
UV 0.0 out of 12
Pollen 5.90 out of 12
Ozone Good
PM2.5 Moderate
Flu Activity Sporadic
METAR KLBX 230253Z AUTO 00000KT 10SM CLR 16/16 A3008 RMK AO2 SLP186 T01610161 53012

More Conditions Fewer Conditions

Pressure 30.08 in
Visibility 10.0 miles
Clouds Clear
Dew Point 63 °F
Humidity 82%
Rainfall 0.00 in
Snow Depth Not available.
UV 0.0 out of 12
Pollen 5.90 out of 12
Ozone Good
PM2.5 Moderate
Flu Activity Sporadic
METAR KLBX 230253Z AUTO 00000KT 10SM CLR 16/16 A3008 RMK AO2 SLP186 T01610161 53012

More Conditions Fewer Conditions

10-Day Weather Forecast

Almanac

Astronomy

Oct. 22, 2014 Rise Set
Actual Time 7:26 AM CDT 6:44 PM CDT
Civil Twilight 7:02 AM CDT 7:08 PM CDT
Nautical Twilight 6:35 AM CDT 7:35 PM CDT
Astronomical Twilight 6:07 AM CDT 8:03 PM CDT
Moon 6:14 AM CDT (10/22) 6:07 PM CDT (10/22)
Length of Visible Light 12h 05m
Length of Day
11h 17m
Tomorrow will be 1m 37s shorter.
Waning Crescent, 1% of the Moon is Illuminated
Today
Waning Crescent
Oct 23
New
Oct 30
First Quarter
Nov 6
Full
Nov 14
Last Quarter

Today's Extremes

State Highs State Lows

Community

WunderPhotos

Upload Photos

1,764,130 photos uploaded!

Nearby

Air Quality

  Air Quality AQ Index Pollutant
Yesterday Moderate
PM2.5
Yesterday Moderate
OZONE
Current Moderate
PM2.5
Current Good
OZONE
Wednesday Moderate
OZONE
Wednesday Good
PM10
Thursday Moderate
OZONE
Thursday Good
PM10
Friday Moderate
OZONE
Friday Good
PM10
Saturday Unhealthy for Sensitive Groups
OZONE
Saturday Good
PM10

Snow Depth

Station Depth Elevation
No new snow has been reported.

Earthquake Activity

City Distance Mag. Time & Date
No recent earthquake activity has been reported nearby.
Minimum magnitude displayed is 2.5.

Coastal Water Temperatures

Place Temperature
Eagle Point, TX 75.9 °F
USCG Freeport, TX 75.9 °F
Galveston Pier TX 77.0 °F
Galveston Bay (North Jetty), TX 77.0 °F
Rollover Pass, TX 75.0 °F

Nearby Weather Stations